createdAt,value
2023-04-01T00:02:18.431Z,27.22
2023-04-01T00:04:51.193Z,24.82
2023-04-01T00:07:23.927Z,25.10
2023-04-01T00:09:57.208Z,28.30
2023-04-01T00:12:30.816Z,24.75
2023-04-01T00:15:03.235Z,29.00
2023-04-01T00:17:36.112Z,25.62
2023-04-01T00:20:10.752Z,23.18
2023-04-01T00:22:44.047Z,27.77
2023-04-01T00:25:16.929Z,27.10
2023-04-01T00:27:50.496Z,25.48
2023-04-01T00:30:23.213Z,24.85
2023-04-01T00:32:56.904Z,27.73
2023-04-01T00:35:29.822Z,28.07
2023-04-01T00:38:02.988Z,24.63
2023-04-01T00:40:44.777Z,25.80
2023-04-01T00:43:22.213Z,23.67
2023-04-01T00:45:55.057Z,26.57
2023-04-01T00:48:33.502Z,27.67
2023-04-01T00:51:18.511Z,25.55
2023-04-01T00:53:53.179Z,27.55
2023-04-01T00:56:39.433Z,26.55
2023-04-01T00:59:18.482Z,28.92
2023-04-01T01:01:51.281Z,31.27
2023-04-01T01:04:30.706Z,25.65
2023-04-01T01:07:13.912Z,26.80
2023-04-01T01:10:08.888Z,27.77
2023-04-01T01:12:48.645Z,27.22
2023-04-01T01:15:31.320Z,28.87
2023-04-01T01:18:27.092Z,26.35
2023-04-01T01:21:21.987Z,25.32
2023-04-01T01:24:32.709Z,32.05
2023-04-01T01:27:17.681Z,28.57
2023-04-01T01:32:59.048Z,32.38
2023-04-01T01:35:49.616Z,29.35
2023-04-01T01:38:29.781Z,32.15
2023-04-01T01:41:08.517Z,27.50
2023-04-01T01:43:47.684Z,28.90
2023-04-01T01:46:24.780Z,29.37
2023-04-01T01:48:57.469Z,28.32
2023-04-01T01:51:30.182Z,28.85
2023-04-01T01:54:03.407Z,30.57
2023-04-01T01:56:37.045Z,27.50
2023-04-01T01:59:11.973Z,30.40
2023-04-01T02:01:48.106Z,29.02
2023-04-01T02:04:21.396Z,32.08
2023-04-01T02:07:00.109Z,29.23
2023-04-01T02:09:32.761Z,32.28
2023-04-01T02:12:10.620Z,32.53
2023-04-01T02:15:10.257Z,32.98
2023-04-01T02:17:46.589Z,29.55
2023-04-01T02:20:24.980Z,29.07
2023-04-01T02:23:00.454Z,32.13
2023-04-01T02:25:37.011Z,35.10
2023-04-01T02:28:10.195Z,35.43
2023-04-01T02:30:44.432Z,34.63
2023-04-01T02:33:18.877Z,33.60
2023-04-01T02:35:51.653Z,36.35
2023-04-01T02:38:24.530Z,31.12
2023-04-01T02:41:02.226Z,31.45
2023-04-01T02:43:35.385Z,32.33
2023-04-01T02:46:07.906Z,30.10
2023-04-01T02:48:40.317Z,33.35
2023-04-01T02:51:14.955Z,30.72
2023-04-01T02:53:50.744Z,31.95
2023-04-01T02:56:23.401Z,27.65
2023-04-01T02:58:57.302Z,31.50
2023-04-01T03:01:30.456Z,33.23
2023-04-01T03:04:03.461Z,33.13
2023-04-01T03:06:36.473Z,30.70
2023-04-01T03:09:10.176Z,29.05
2023-04-01T03:11:42.895Z,30.55
2023-04-01T03:14:16.102Z,31.48
2023-04-01T03:16:49.920Z,33.30
2023-04-01T03:19:22.347Z,29.37
2023-04-01T03:21:55.552Z,28.40
2023-04-01T03:24:28.026Z,32.13
2023-04-01T03:27:00.862Z,28.32
2023-04-01T03:29:33.782Z,32.60
2023-04-01T03:32:06.580Z,28.25
2023-04-01T03:34:39.382Z,29.65
2023-04-01T03:37:12.179Z,28.40
2023-04-01T03:39:45.516Z,31.45
2023-04-01T03:42:18.277Z,31.93
2023-04-01T03:44:50.915Z,28.65
2023-04-01T03:47:24.732Z,30.05
2023-04-01T03:49:57.224Z,26.35
2023-04-01T03:52:31.107Z,28.67
2023-04-01T03:55:04.232Z,26.52
2023-04-01T03:57:37.924Z,28.55
2023-04-01T04:00:13.387Z,27.10
2023-04-01T04:02:50.033Z,26.87
2023-04-01T04:05:25.868Z,29.20
2023-04-01T04:07:58.396Z,27.17
2023-04-01T04:10:31.293Z,26.93
2023-04-01T04:13:05.002Z,26.57
2023-04-01T04:15:39.390Z,27.82
2023-04-01T04:18:12.749Z,29.23
2023-04-01T04:20:50.725Z,24.72
2023-04-01T04:23:24.571Z,28.38
2023-04-01T04:26:03.382Z,27.80
2023-04-01T04:28:36.640Z,24.12
2023-04-01T04:31:09.589Z,31.05
2023-04-01T04:33:43.511Z,27.30
2023-04-01T04:36:16.195Z,27.70
2023-04-01T04:38:49.528Z,28.60
2023-04-01T04:41:23.410Z,32.17
2023-04-01T04:43:58.136Z,30.02
2023-04-01T04:46:30.752Z,32.23
2023-04-01T04:49:04.982Z,29.40
2023-04-01T04:51:39.047Z,27.58
2023-04-01T04:54:12.180Z,28.60
2023-04-01T04:56:55.003Z,28.00
2023-04-01T04:59:29.060Z,27.35
2023-04-01T05:02:04.319Z,23.83
2023-04-01T05:04:38.878Z,26.23
2023-04-01T05:07:13.523Z,25.65
2023-04-01T05:09:46.879Z,29.35
2023-04-01T05:12:20.270Z,27.13
2023-04-01T05:15:07.914Z,29.27
2023-04-01T05:17:41.803Z,23.32
2023-04-01T05:20:16.464Z,23.30
2023-04-01T05:22:49.234Z,28.47
2023-04-01T05:25:22.198Z,22.90
2023-04-01T05:27:55.696Z,23.30
2023-04-01T05:30:28.933Z,26.67
2023-04-01T05:33:06.885Z,30.92
2023-04-01T05:35:39.822Z,29.30
2023-04-01T05:38:12.829Z,24.47
2023-04-01T05:40:45.820Z,25.57
2023-04-01T05:43:19.048Z,23.52
2023-04-01T05:45:53.220Z,24.52
2023-04-01T05:48:35.930Z,22.35
2023-04-01T05:51:15.194Z,25.32
2023-04-01T05:53:48.313Z,22.98
2023-04-01T05:56:21.390Z,23.32
2023-04-01T05:58:56.558Z,23.60
2023-04-01T06:01:29.115Z,27.55
2023-04-01T06:04:02.969Z,27.20
2023-04-01T06:06:35.941Z,26.27
2023-04-01T06:09:24.683Z,23.65
2023-04-01T06:12:20.661Z,21.90
2023-04-01T06:15:24.633Z,23.27
2023-04-01T06:18:14.621Z,24.95
2023-04-01T06:21:09.638Z,21.15
2023-04-01T06:24:14.376Z,19.80
2023-04-01T06:27:28.257Z,21.12
2023-04-01T06:30:28.703Z,22.02
2023-04-01T06:33:29.953Z,20.37
2023-04-01T06:36:16.468Z,21.77
2023-04-01T06:39:17.858Z,20.55
2023-04-01T06:42:24.198Z,20.40
2023-04-01T06:45:10.090Z,21.17
2023-04-01T06:48:17.372Z,22.90
2023-04-01T06:51:28.851Z,19.20
2023-04-01T06:54:46.325Z,21.48
2023-04-01T06:57:42.010Z,21.55
2023-04-01T07:00:36.596Z,23.87
2023-04-01T07:03:43.114Z,21.10
2023-04-01T07:06:56.049Z,18.25
2023-04-01T07:09:38.899Z,20.80
2023-04-01T07:12:48.762Z,20.05
2023-04-01T07:15:41.253Z,19.37
2023-04-01T07:18:22.771Z,21.85
2023-04-01T07:20:56.041Z,21.05
2023-04-01T07:23:41.461Z,18.00
2023-04-01T07:26:21.982Z,17.77
2023-04-01T07:29:07.929Z,18.35
2023-04-01T07:32:23.456Z,23.62
2023-04-01T07:35:10.809Z,23.52
2023-04-01T07:38:27.371Z,19.27
2023-04-01T07:41:24.992Z,21.25
2023-04-01T07:44:17.318Z,19.85
2023-04-01T07:47:19.544Z,19.92
2023-04-01T07:50:30.985Z,23.62
2023-04-01T07:53:40.653Z,20.35
2023-04-01T07:56:29.824Z,20.00
2023-04-01T07:59:19.591Z,17.48
2023-04-01T08:02:14.420Z,18.25
2023-04-01T08:05:04.214Z,19.75
2023-04-01T08:08:19.077Z,18.65
2023-04-01T08:11:25.826Z,20.02
2023-04-01T08:14:41.495Z,20.97
2023-04-01T08:17:33.261Z,19.92
2023-04-01T08:20:22.186Z,20.77
2023-04-01T08:23:15.997Z,21.10
2023-04-01T08:26:15.950Z,16.97
2023-04-01T08:28:56.620Z,21.40
2023-04-01T08:32:01.385Z,18.27
2023-04-01T08:34:44.271Z,19.02
2023-04-01T08:37:22.478Z,18.83
2023-04-01T08:40:18.828Z,19.15
2023-04-01T08:43:11.405Z,21.45
2023-04-01T08:46:05.554Z,20.35
2023-04-01T08:49:06.207Z,19.57
2023-04-01T08:52:04.645Z,20.40
2023-04-01T08:55:25.627Z,24.25
2023-04-01T08:58:22.985Z,26.12
2023-04-01T09:02:05.798Z,27.00
2023-04-01T09:05:16.701Z,26.70
2023-04-01T09:08:18.423Z,29.02
2023-04-01T09:11:36.886Z,30.37
2023-04-01T09:14:57.945Z,30.30
2023-04-01T09:17:55.667Z,32.93
2023-04-01T09:21:01.924Z,34.85
2023-04-01T09:23:57.622Z,35.70
2023-04-01T09:26:58.509Z,31.95
2023-04-01T09:30:03.562Z,32.45
2023-04-01T09:33:19.896Z,32.55
2023-04-01T09:39:02.271Z,31.45
2023-04-01T09:41:49.028Z,31.33
2023-04-01T09:44:36.145Z,29.75
2023-04-01T09:47:41.417Z,29.50
2023-04-01T09:50:55.357Z,30.35
2023-04-01T09:53:48.731Z,27.07
2023-04-01T09:56:53.605Z,29.75
2023-04-01T10:00:16.955Z,30.35
2023-04-01T10:03:19.658Z,25.92
2023-04-01T10:06:09.200Z,25.65
2023-04-01T10:09:18.559Z,26.30
2023-04-01T10:12:18.105Z,23.80
2023-04-01T10:15:24.441Z,20.00
2023-04-01T10:18:07.879Z,22.90
2023-04-01T10:21:10.168Z,26.90
2023-04-01T10:24:04.349Z,20.88
2023-04-01T10:27:09.578Z,23.90
2023-04-01T10:30:22.816Z,24.90
2023-04-01T10:33:19.651Z,20.00
2023-04-01T10:36:33.325Z,21.68
2023-04-01T10:39:34.873Z,20.17
2023-04-01T10:42:29.422Z,19.42
2023-04-01T10:45:43.230Z,18.07
2023-04-01T10:48:37.274Z,18.17
2023-04-01T10:51:26.476Z,18.05
2023-04-01T10:54:38.918Z,21.75
2023-04-01T10:57:32.466Z,16.35
2023-04-01T11:00:26.904Z,15.63
2023-04-01T11:03:57.797Z,14.20
2023-04-01T11:07:20.321Z,14.80
2023-04-01T11:10:06.912Z,19.85
2023-04-01T11:13:06.351Z,15.48
2023-04-01T11:15:47.404Z,14.65
2023-04-01T11:18:55.733Z,13.15
2023-04-01T11:21:36.429Z,16.02
2023-04-01T11:24:29.396Z,16.10
2023-04-01T11:30:04.432Z,16.15
2023-04-01T11:32:45.980Z,17.40
2023-04-01T11:35:57.227Z,13.65
2023-04-01T11:39:08.982Z,14.45
2023-04-01T11:42:28.512Z,13.90
2023-04-01T11:45:58.596Z,13.05
2023-04-01T11:48:58.978Z,13.68
2023-04-01T11:52:10.001Z,14.50
2023-04-01T11:55:13.204Z,15.25
2023-04-01T11:58:02.585Z,16.17
2023-04-01T12:00:49.548Z,13.78
2023-04-01T12:03:46.325Z,14.87
2023-04-01T12:06:59.173Z,14.60
2023-04-01T12:09:45.929Z,15.53
2023-04-01T12:13:04.498Z,13.53
2023-04-01T12:16:11.441Z,15.28
2023-04-01T12:18:52.898Z,13.10
2023-04-01T12:21:54.325Z,14.65
2023-04-01T12:24:40.656Z,14.93
2023-04-01T12:27:23.831Z,14.20
2023-04-01T12:30:31.883Z,12.85
2023-04-01T12:33:15.413Z,11.93
2023-04-01T12:36:12.631Z,11.40
2023-04-01T12:39:24.921Z,11.03
2023-04-01T12:42:43.121Z,10.72
2023-04-01T12:45:38.123Z,12.55
2023-04-01T12:48:24.226Z,14.20
2023-04-01T12:51:28.517Z,11.40
2023-04-01T12:54:28.252Z,11.70
2023-04-01T12:57:14.137Z,12.65
2023-04-01T12:59:57.312Z,12.18
2023-04-01T13:02:51.921Z,8.93
2023-04-01T13:05:44.373Z,10.65
2023-04-01T13:08:27.679Z,9.58
2023-04-01T13:11:44.048Z,7.62
2023-04-01T13:14:51.971Z,9.93
2023-04-01T13:18:09.300Z,8.55
2023-04-01T13:21:03.313Z,8.18
2023-04-01T13:24:00.290Z,7.65
2023-04-01T13:27:17.453Z,6.97
2023-04-01T13:30:20.371Z,6.25
2023-04-01T13:33:32.963Z,7.08
2023-04-01T13:36:10.310Z,5.17
2023-04-01T13:39:16.296Z,9.73
2023-04-01T13:42:08.812Z,6.62
2023-04-01T13:45:08.637Z,6.05
2023-04-01T13:47:57.983Z,8.73
2023-04-01T13:50:59.744Z,5.12
2023-04-01T13:54:20.151Z,5.30
2023-04-01T13:57:31.875Z,5.97
2023-04-01T14:00:30.419Z,7.42
2023-04-01T14:03:15.025Z,5.33
2023-04-01T14:06:05.107Z,7.20
2023-04-01T14:09:04.007Z,7.45
2023-04-01T14:12:04.518Z,7.22
2023-04-01T14:14:48.273Z,6.37
2023-04-01T14:18:01.879Z,7.05
2023-04-01T14:21:16.139Z,7.47
2023-04-01T14:24:18.070Z,7.80
2023-04-01T14:27:20.816Z,8.88
2023-04-01T14:30:01.216Z,7.00
2023-04-01T14:32:41.945Z,9.33
2023-04-01T14:36:07.998Z,8.23
2023-04-01T14:38:58.272Z,7.12
2023-04-01T14:41:52.606Z,6.75
2023-04-01T14:45:09.081Z,7.57
2023-04-01T14:48:02.172Z,7.40
2023-04-01T14:50:42.837Z,7.87
2023-04-01T14:53:32.739Z,11.65
2023-04-01T14:56:05.446Z,8.15
2023-04-01T14:58:52.533Z,7.10
2023-04-01T15:01:48.985Z,7.55
2023-04-01T15:05:03.130Z,7.62
2023-04-01T15:07:56.033Z,6.17
2023-04-01T15:10:42.199Z,6.65
2023-04-01T15:13:33.957Z,10.35
2023-04-01T15:16:14.182Z,7.28
2023-04-01T15:18:55.459Z,9.73
2023-04-01T15:21:36.026Z,12.00
2023-04-01T15:24:39.388Z,14.95
2023-04-01T15:27:22.809Z,7.58
2023-04-01T15:30:32.483Z,7.12
2023-04-01T15:33:46.948Z,7.37
2023-04-01T15:36:40.331Z,7.67
2023-04-01T15:39:20.827Z,8.03
2023-04-01T15:42:17.508Z,7.97
2023-04-01T15:44:58.488Z,8.40
2023-04-01T15:47:41.739Z,7.83
2023-04-01T15:50:37.016Z,9.60
2023-04-01T15:53:17.241Z,9.80
2023-04-01T15:55:57.619Z,8.85
2023-04-01T15:59:06.757Z,7.80
2023-04-01T16:01:52.788Z,8.65
2023-04-01T16:04:37.025Z,8.33
2023-04-01T16:07:20.143Z,8.38
2023-04-01T16:10:22.560Z,7.08
2023-04-01T16:13:50.675Z,6.28
2023-04-01T16:16:59.677Z,6.97
2023-04-01T16:19:55.389Z,7.00
2023-04-01T16:22:50.834Z,8.48
2023-04-01T16:25:37.340Z,7.90
2023-04-01T16:28:56.300Z,7.15
2023-04-01T16:31:50.294Z,12.15
2023-04-01T16:34:51.748Z,9.18
2023-04-01T16:37:36.692Z,7.92
2023-04-01T16:40:23.185Z,8.40
2023-04-01T16:43:12.686Z,7.37
2023-04-01T16:45:50.901Z,8.20
2023-04-01T16:48:43.772Z,8.05
2023-04-01T16:51:18.639Z,8.63
2023-04-01T16:54:20.018Z,8.30
2023-04-01T16:57:17.372Z,10.60
2023-04-01T17:00:27.444Z,8.38
2023-04-01T17:03:15.903Z,10.18
2023-04-01T17:06:10.297Z,9.13
2023-04-01T17:09:05.731Z,9.58
2023-04-01T17:12:04.095Z,10.00
2023-04-01T17:14:57.091Z,9.70
2023-04-01T17:17:46.818Z,8.60
2023-04-01T17:20:38.049Z,8.18
2023-04-01T17:23:32.420Z,9.10
2023-04-01T17:26:23.333Z,9.87
2023-04-01T17:29:34.593Z,9.90
2023-04-01T17:32:39.472Z,9.70
2023-04-01T17:35:22.517Z,9.97
2023-04-01T17:38:27.592Z,10.05
2023-04-01T17:41:17.312Z,11.88
2023-04-01T17:44:12.586Z,10.85
2023-04-01T17:47:05.654Z,12.58
2023-04-01T17:50:05.475Z,11.75
2023-04-01T17:52:58.224Z,10.90
2023-04-01T17:55:39.043Z,10.38
2023-04-01T17:58:28.319Z,9.08
2023-04-01T18:01:24.370Z,10.82
2023-04-01T18:04:13.112Z,9.85
2023-04-01T18:07:11.564Z,11.75
2023-04-01T18:10:06.017Z,14.95
2023-04-01T18:13:07.433Z,14.40
2023-04-01T18:16:08.105Z,16.45
2023-04-01T18:18:57.668Z,15.85
2023-04-01T18:21:38.986Z,14.78
2023-04-01T18:24:19.511Z,15.45
2023-04-01T18:27:05.903Z,15.75
2023-04-01T18:29:46.631Z,13.43
2023-04-01T18:32:57.552Z,13.13
2023-04-01T18:35:54.515Z,11.83
2023-04-01T18:38:51.696Z,14.60
2023-04-01T18:41:51.115Z,13.45
2023-04-01T18:45:10.800Z,12.50
2023-04-01T18:47:56.631Z,12.90
2023-04-01T18:50:56.755Z,13.68
2023-04-01T18:53:43.885Z,13.75
2023-04-01T18:56:38.049Z,12.23
2023-04-01T18:59:36.788Z,10.75
2023-04-01T19:02:36.883Z,11.57
2023-04-01T19:05:23.775Z,13.05
2023-04-01T19:07:58.193Z,13.15
2023-04-01T19:10:56.593Z,13.93
2023-04-01T19:13:59.736Z,13.43
2023-04-01T19:16:39.836Z,12.40
2023-04-01T19:20:04.902Z,12.95
2023-04-01T19:23:06.015Z,14.23
2023-04-01T19:25:54.366Z,13.72
2023-04-01T19:28:54.555Z,14.58
2023-04-01T19:31:52.903Z,14.38
2023-04-01T19:34:45.700Z,15.45
2023-04-01T19:37:32.417Z,15.80
2023-04-01T19:40:27.864Z,16.15
2023-04-01T19:43:25.277Z,15.43
2023-04-01T19:46:21.614Z,13.72
2023-04-01T19:49:21.322Z,15.05
2023-04-01T19:52:20.673Z,13.90
2023-04-01T19:55:23.989Z,17.25
2023-04-01T19:58:21.685Z,13.70
2023-04-01T20:01:01.658Z,15.13
2023-04-01T20:03:58.206Z,13.28
2023-04-01T20:06:57.324Z,13.88
2023-04-01T20:09:46.592Z,14.38
2023-04-01T20:12:34.843Z,15.05
2023-04-01T20:15:27.978Z,17.55
2023-04-01T20:18:01.312Z,13.30
2023-04-01T20:20:34.638Z,14.70
2023-04-01T20:23:30.186Z,12.28
2023-04-01T20:26:14.072Z,15.10
2023-04-01T20:29:08.045Z,15.55
2023-04-01T20:31:50.880Z,13.95
2023-04-01T20:35:03.121Z,20.88
2023-04-01T20:37:53.518Z,22.05
2023-04-01T20:40:44.424Z,27.98
2023-04-01T20:43:33.440Z,26.77
2023-04-01T20:46:29.476Z,29.10
2023-04-01T20:49:32.929Z,30.85
2023-04-01T20:52:19.372Z,28.98
2023-04-01T20:55:24.134Z,27.67
2023-04-01T20:58:10.781Z,28.55
2023-04-01T21:01:07.237Z,27.22
2023-04-01T21:03:57.866Z,22.20
2023-04-01T21:06:38.230Z,19.73
2023-04-01T21:09:23.780Z,19.80
2023-04-01T21:12:24.548Z,17.52
2023-04-01T21:15:43.025Z,18.12
2023-04-01T21:18:38.373Z,16.32
2023-04-01T21:24:17.132Z,18.77
2023-04-01T21:26:58.908Z,15.08
2023-04-01T21:30:10.943Z,15.95
2023-04-01T21:33:20.632Z,16.23
2023-04-01T21:36:31.127Z,17.17
2023-04-01T21:39:43.408Z,14.75
2023-04-01T21:42:40.646Z,15.45
2023-04-01T21:45:45.404Z,18.42
2023-04-01T21:48:51.753Z,14.83
2023-04-01T21:52:04.209Z,15.80
2023-04-01T21:55:08.748Z,13.98
2023-04-01T21:58:14.092Z,14.80
2023-04-01T22:01:16.302Z,15.32
2023-04-01T22:04:17.770Z,17.15
2023-04-01T22:06:58.315Z,16.02
2023-04-01T22:09:55.990Z,14.20
2023-04-01T22:12:45.863Z,14.25
2023-04-01T22:15:50.983Z,16.77
2023-04-01T22:18:56.911Z,16.27
2023-04-01T22:21:50.564Z,14.33
2023-04-01T22:24:28.277Z,14.55
2023-04-01T22:27:20.372Z,14.83
2023-04-01T22:30:17.097Z,18.65
2023-04-01T22:32:55.760Z,16.25
2023-04-01T22:36:03.448Z,17.37
2023-04-01T22:38:54.843Z,15.20
2023-04-01T22:42:06.857Z,14.53
2023-04-01T22:45:08.087Z,14.80
2023-04-01T22:48:10.100Z,17.02
2023-04-01T22:50:59.023Z,14.87
2023-04-01T22:54:22.362Z,14.23
2023-04-01T22:56:59.817Z,13.83
2023-04-01T22:59:49.452Z,14.83
2023-04-01T23:02:36.009Z,14.80
2023-04-01T23:05:12.983Z,13.90
2023-04-01T23:08:09.029Z,16.32
2023-04-01T23:10:48.988Z,13.43
2023-04-01T23:13:42.098Z,13.88
2023-04-01T23:16:14.897Z,14.73
2023-04-01T23:18:56.294Z,18.52
2023-04-01T23:21:51.711Z,18.27
2023-04-01T23:24:40.376Z,14.28
2023-04-01T23:27:19.893Z,13.18
2023-04-01T23:29:53.756Z,13.55
2023-04-01T23:32:29.819Z,18.20
2023-04-01T23:35:03.292Z,14.95
2023-04-01T23:37:36.900Z,17.62
2023-04-01T23:40:13.020Z,15.18
2023-04-01T23:42:45.848Z,16.32
2023-04-01T23:45:21.923Z,16.20
2023-04-01T23:47:55.003Z,15.83
2023-04-01T23:50:27.757Z,15.50
2023-04-01T23:53:05.080Z,13.45
2023-04-01T23:55:38.270Z,15.58
2023-04-01T23:58:24.669Z,15.72
